< Typhoon 195709 1957 Season Typhoon 195711 >
Typhoon 195710 (BESS)
General InformationTrack Information on Google Maps || NewsDisaster Info.ResourceGoogle EarthGE AnimationAtom FeedGeoJSON
Detalied Best Track (Time Zone = UTC)
Year Month Day Hour Lat. Long. Pressure (hPa) Wind (kt) Class Image Chart
1957 8 26 06 14.0 153.0 1005 0 2 -- Chart
1957 8 26 12 15.0 152.6 1006 0 2 -- Chart
1957 8 26 18 15.8 152.0 1005 0 2 -- Chart
1957 8 27 00 16.0 151.0 1005 0 2 -- Chart
1957 8 27 06 16.0 150.2 1002 0 2 -- Chart
1957 8 27 12 16.0 149.4 1002 0 2 -- Chart
1957 8 27 18 16.0 148.6 1002 0 2 -- Chart
1957 8 28 00 16.0 147.9 1000 0 9 -- Chart
1957 8 28 06 16.3 146.4 998 0 9 -- Chart
1957 8 28 12 16.9 145.5 998 0 9 -- Chart
1957 8 28 18 17.8 145.0 996 0 9 -- Chart
1957 8 29 00 18.2 144.2 995 0 9 -- Chart
1957 8 29 06 19.4 143.7 990 0 9 -- Chart
1957 8 29 12 20.4 143.2 985 0 9 -- Chart
1957 8 29 18 21.5 142.8 980 0 9 -- Chart
1957 8 30 00 22.6 142.2 975 0 9 -- Chart
1957 8 30 06 23.9 141.8 975 0 9 -- Chart
1957 8 30 12 24.2 141.2 970 0 9 -- Chart
1957 8 30 18 24.9 140.9 970 0 9 -- Chart
1957 8 31 00 25.4 140.7 970 0 9 -- Chart
1957 8 31 06 26.0 140.2 970 0 9 -- Chart
1957 8 31 12 26.4 139.5 970 0 9 -- Chart
1957 8 31 18 26.6 139.1 965 0 9 -- Chart
1957 9 1 00 27.0 138.7 960 0 9 -- Chart
1957 9 1 06 27.1 138.3 950 0 9 -- Chart
1957 9 1 12 27.2 137.9 950 0 9 -- Chart
1957 9 1 18 27.0 137.5 955 0 9 -- Chart
1957 9 2 00 27.2 137.0 960 0 9 -- Chart
1957 9 2 06 27.5 136.8 960 0 9 -- Chart
1957 9 2 12 27.7 136.1 965 0 9 -- Chart
1957 9 2 18 28.0 135.5 960 0 9 -- Chart
1957 9 3 00 27.9 135.1 960 0 9 -- Chart
1957 9 3 06 28.0 134.6 960 0 9 -- Chart
1957 9 3 12 28.0 134.4 965 0 9 -- Chart
1957 9 3 18 28.4 133.8 965 0 9 -- Chart
1957 9 4 00 28.4 133.4 965 0 9 -- Chart
1957 9 4 06 28.0 132.4 960 0 9 -- Chart
1957 9 4 12 27.6 131.4 955 0 9 -- Chart
1957 9 4 18 27.8 130.4 960 0 9 -- Chart
1957 9 5 00 28.2 129.5 960 0 9 -- Chart
1957 9 5 06 28.5 129.1 960 0 9 -- Chart
1957 9 5 12 28.7 128.6 958 0 9 -- Chart
1957 9 5 18 29.7 128.9 960 0 9 -- Chart
1957 9 6 00 30.3 129.2 958 0 9 -- Chart
1957 9 6 06 30.7 129.9 958 0 9 -- Chart
1957 9 6 12 31.4 130.8 956 0 9 -- Chart
1957 9 6 18 32.5 131.5 970 0 9 -- Chart
1957 9 7 00 33.0 132.4 982 0 9 -- Chart
1957 9 7 06 34.3 133.9 991 0 9 -- Chart
1957 9 7 12 36.2 135.6 995 0 9 -- Chart
1957 9 7 18 40.0 139.0 998 0 6 -- Chart
1957 9 8 00 42.0 144.0 998 0 6 -- Chart
1957 9 8 06 44.0 148.0 998 0 6 -- Chart
1957 9 8 12 46.0 152.0 996 0 6 -- Chart
1957 9 8 18 47.2 156.2 996 0 6 -- Chart
1957 9 9 00 48.0 161.0 994 0 6 -- Chart
1957 9 9 06 48.0 164.7 990 0 6 -- Chart
1957 9 9 12 48.0 168.0 986 0 6 -- Chart
1957 9 9 18 48.0 172.0 990 0 6 -- Chart
1957 9 10 00 47.0 177.0 988 0 6 -- Chart
1957 9 10 06 47.5 183.5 988 0 6 -- Chart
Japan Meteorological Agency Best Track Data | Correction Date : 1989-06-01
< Typhoon 195709 1957 Season Typhoon 195711 >

Help